createdAt,value
2019-05-14T00:01:03.296Z,9.71
2019-05-14T00:03:32.174Z,9.64
2019-05-14T00:06:02.221Z,9.55
2019-05-14T00:08:31.670Z,9.48
2019-05-14T00:11:01.450Z,9.40
2019-05-14T00:13:32.102Z,9.33
2019-05-14T00:16:01.578Z,9.28
2019-05-14T00:18:31.504Z,9.21
2019-05-14T00:21:01.873Z,9.14
2019-05-14T00:23:31.875Z,9.07
2019-05-14T00:26:01.913Z,9.04
2019-05-14T00:28:31.781Z,8.97
2019-05-14T00:31:02.874Z,8.91
2019-05-14T00:33:31.814Z,8.86
2019-05-14T00:36:02.152Z,8.80
2019-05-14T00:38:31.636Z,8.75
2019-05-14T00:41:01.953Z,8.70
2019-05-14T00:43:32.355Z,8.65
2019-05-14T00:46:01.835Z,8.61
2019-05-14T00:48:31.789Z,8.56
2019-05-14T00:51:02.222Z,8.52
2019-05-14T00:53:32.144Z,8.48
2019-05-14T00:56:02.142Z,8.43
2019-05-14T00:58:31.508Z,8.39
2019-05-14T01:01:01.560Z,8.35
2019-05-14T01:03:32.392Z,8.32
2019-05-14T01:06:02.991Z,8.28
2019-05-14T01:08:32.205Z,8.25
2019-05-14T01:11:01.754Z,8.21
2019-05-14T01:13:31.393Z,8.15
2019-05-14T01:16:01.646Z,8.12
2019-05-14T01:18:32.273Z,8.09
2019-05-14T01:21:01.869Z,8.05
2019-05-14T01:23:32.326Z,8.02
2019-05-14T01:26:02.247Z,8.01
2019-05-14T01:28:32.262Z,7.98
2019-05-14T01:31:01.486Z,7.93
2019-05-14T01:33:31.825Z,7.89
2019-05-14T01:36:02.057Z,7.82
2019-05-14T01:38:31.654Z,7.79
2019-05-14T01:41:01.834Z,7.73
2019-05-14T01:43:31.615Z,7.68
2019-05-14T01:46:01.951Z,7.63
2019-05-14T01:48:31.421Z,7.60
2019-05-14T01:51:01.534Z,7.57
2019-05-14T01:53:31.293Z,7.53
2019-05-14T01:56:01.710Z,7.47
2019-05-14T01:58:31.289Z,7.44
2019-05-14T02:01:01.933Z,7.40
2019-05-14T02:03:32.298Z,7.37
2019-05-14T02:06:01.752Z,7.32
2019-05-14T02:08:32.238Z,7.27
2019-05-14T02:11:01.870Z,7.23
2019-05-14T02:13:32.219Z,7.18
2019-05-14T02:16:02.052Z,7.14
2019-05-14T02:18:31.629Z,7.09
2019-05-14T02:21:01.526Z,7.05
2019-05-14T02:23:32.061Z,7.01
2019-05-14T02:26:02.602Z,6.97
2019-05-14T02:28:31.776Z,6.92
2019-05-14T02:31:03.366Z,6.89
2019-05-14T02:33:31.638Z,6.85
2019-05-14T02:36:00.704Z,6.82
2019-05-14T02:38:30.178Z,6.79
2019-05-14T02:41:00.154Z,6.76
2019-05-14T02:43:30.177Z,6.71
2019-05-14T02:46:10.814Z,6.70
2019-05-14T02:48:30.028Z,6.66
2019-05-14T02:51:00.024Z,6.62
2019-05-14T02:53:29.880Z,6.59
2019-05-14T02:55:59.647Z,6.54
2019-05-14T02:58:29.962Z,6.50
2019-05-14T03:01:00.409Z,6.48
2019-05-14T03:03:30.181Z,6.44
2019-05-14T03:06:00.496Z,6.41
2019-05-14T03:08:30.556Z,6.39
2019-05-14T03:11:00.429Z,6.35
2019-05-14T03:13:30.016Z,6.31
2019-05-14T03:15:59.759Z,6.29
2019-05-14T03:18:29.708Z,6.25
2019-05-14T03:21:00.892Z,6.22
2019-05-14T03:23:30.447Z,6.18
2019-05-14T03:26:00.458Z,6.15
2019-05-14T03:28:30.627Z,6.11
2019-05-14T03:31:02.994Z,6.07
2019-05-14T03:33:33.471Z,6.05
2019-05-14T03:36:09.171Z,6.02
2019-05-14T03:38:32.229Z,6.00
2019-05-14T03:41:01.293Z,5.98
2019-05-14T03:43:30.359Z,5.95
2019-05-14T03:45:59.658Z,5.94
2019-05-14T03:48:29.780Z,5.91
2019-05-14T03:51:00.143Z,5.87
2019-05-14T03:53:30.081Z,5.85
2019-05-14T03:56:00.211Z,5.83
2019-05-14T03:58:30.324Z,5.82
2019-05-14T04:01:03.755Z,5.81
2019-05-14T04:03:33.039Z,5.78
2019-05-14T04:06:03.011Z,5.78
2019-05-14T04:08:33.565Z,5.77
2019-05-14T04:11:02.852Z,5.76
2019-05-14T04:13:33.767Z,5.75
2019-05-14T04:16:03.797Z,5.73
2019-05-14T04:18:35.842Z,5.73
2019-05-14T04:21:05.602Z,5.70
2019-05-14T04:23:39.701Z,5.69
2019-05-14T04:26:09.534Z,5.70
2019-05-14T04:28:41.126Z,5.70
2019-05-14T04:31:11.977Z,5.70
2019-05-14T04:33:45.213Z,5.72
2019-05-14T04:36:14.566Z,5.74
2019-05-14T04:38:43.645Z,5.76
2019-05-14T04:41:12.723Z,5.77
2019-05-14T04:43:42.048Z,5.78
2019-05-14T04:46:11.131Z,5.81
2019-05-14T04:48:43.591Z,5.83
2019-05-14T04:51:10.884Z,5.86
2019-05-14T04:53:39.938Z,5.90
2019-05-14T04:56:10.033Z,5.90
2019-05-14T04:58:40.925Z,5.94
2019-05-14T05:01:10.339Z,5.95
2019-05-14T05:03:40.275Z,5.99
2019-05-14T05:06:10.126Z,6.03
2019-05-14T05:08:39.835Z,6.07
2019-05-14T05:11:09.667Z,6.12
2019-05-14T05:13:39.842Z,6.16
2019-05-14T05:16:10.069Z,6.25
2019-05-14T05:18:40.177Z,6.32
2019-05-14T05:21:09.433Z,6.41
2019-05-14T05:23:38.909Z,6.49
2019-05-14T05:26:09.189Z,6.59
2019-05-14T05:28:39.226Z,6.66
2019-05-14T05:31:09.309Z,6.74
2019-05-14T05:33:38.706Z,6.86
2019-05-14T05:36:09.500Z,6.93
2019-05-14T05:38:39.351Z,7.01
2019-05-14T05:41:09.167Z,7.07
2019-05-14T05:43:39.343Z,7.15
2019-05-14T05:46:08.876Z,7.20
2019-05-14T05:48:38.963Z,7.26
2019-05-14T05:51:09.131Z,7.31
2019-05-14T05:53:39.328Z,7.37
2019-05-14T05:56:09.142Z,7.42
2019-05-14T05:58:39.737Z,7.47
2019-05-14T06:01:09.883Z,7.52
2019-05-14T06:03:39.468Z,7.57
2019-05-14T06:06:13.576Z,7.60
2019-05-14T06:08:39.526Z,7.66
2019-05-14T06:11:08.661Z,7.71
2019-05-14T06:13:39.168Z,7.77
2019-05-14T06:16:09.501Z,7.81
2019-05-14T06:18:39.526Z,7.86
2019-05-14T06:21:09.286Z,7.92
2019-05-14T06:23:38.883Z,7.97
2019-05-14T06:26:11.458Z,8.01
2019-05-14T06:28:40.937Z,8.05
2019-05-14T06:31:10.241Z,8.10
2019-05-14T06:33:39.772Z,8.13
2019-05-14T06:36:09.021Z,8.17
2019-05-14T06:38:38.841Z,8.21
2019-05-14T06:41:08.585Z,8.24
2019-05-14T06:43:39.269Z,8.30
2019-05-14T06:46:09.171Z,8.33
2019-05-14T06:48:39.720Z,8.37
2019-05-14T06:51:09.043Z,8.41
2019-05-14T06:53:39.316Z,8.46
2019-05-14T06:56:08.479Z,8.50
2019-05-14T06:58:38.960Z,8.56
2019-05-14T07:01:09.684Z,8.61
2019-05-14T07:03:38.934Z,8.66
2019-05-14T07:06:09.045Z,8.71
2019-05-14T07:08:39.315Z,8.77
2019-05-14T07:11:08.775Z,8.82
2019-05-14T07:13:38.580Z,8.87
2019-05-14T07:16:08.997Z,8.93
2019-05-14T07:18:52.562Z,9.01
2019-05-14T07:21:09.047Z,9.09
2019-05-14T07:23:38.607Z,9.17
2019-05-14T07:26:08.425Z,9.24
2019-05-14T07:28:41.969Z,9.30
2019-05-14T07:31:09.823Z,9.37
2019-05-14T07:33:39.173Z,9.47
2019-05-14T07:36:08.812Z,9.56
2019-05-14T07:38:39.205Z,9.66
2019-05-14T07:41:09.193Z,9.77
2019-05-14T07:43:39.320Z,9.87
2019-05-14T07:46:08.751Z,9.97
2019-05-14T07:48:39.270Z,10.03
2019-05-14T07:51:09.108Z,10.12
2019-05-14T07:53:42.216Z,10.22
2019-05-14T07:56:09.630Z,10.33
2019-05-14T07:58:38.943Z,10.45
2019-05-14T08:01:09.480Z,10.52
2019-05-14T08:03:38.784Z,10.54
2019-05-14T08:06:08.454Z,10.62
2019-05-14T08:08:38.631Z,10.75
2019-05-14T08:11:08.624Z,10.90
2019-05-14T08:13:39.048Z,11.03
2019-05-14T08:16:08.934Z,11.16
2019-05-14T08:18:39.587Z,11.19
2019-05-14T08:21:08.889Z,11.25
2019-05-14T08:23:39.136Z,11.29
2019-05-14T08:26:08.522Z,11.27
2019-05-14T08:28:38.230Z,11.28
2019-05-14T08:31:09.363Z,11.29
2019-05-14T08:33:39.726Z,11.32
2019-05-14T08:36:09.153Z,11.34
2019-05-14T08:38:38.473Z,11.35
2019-05-14T08:41:08.467Z,11.36
2019-05-14T08:43:39.712Z,11.36
2019-05-14T08:46:08.592Z,11.39
2019-05-14T08:48:38.971Z,11.42
2019-05-14T08:51:09.139Z,11.49
2019-05-14T08:53:38.843Z,11.55
2019-05-14T08:56:08.820Z,11.59
2019-05-14T08:58:38.917Z,11.64
2019-05-14T09:01:08.397Z,11.65
2019-05-14T09:03:39.304Z,11.65
2019-05-14T09:06:09.222Z,11.68
2019-05-14T09:08:39.167Z,11.70
2019-05-14T09:11:09.894Z,11.75
2019-05-14T09:13:39.381Z,11.81
2019-05-14T09:16:09.262Z,11.85
2019-05-14T09:18:38.863Z,11.87
2019-05-14T09:21:08.640Z,11.88
2019-05-14T09:23:39.201Z,11.91
2019-05-14T09:26:09.655Z,12.09
2019-05-14T09:28:39.491Z,12.19
2019-05-14T09:31:08.861Z,12.26
2019-05-14T09:33:39.028Z,12.32
2019-05-14T09:36:18.533Z,12.37
2019-05-14T09:38:42.187Z,12.37
2019-05-14T09:41:14.961Z,12.40
2019-05-14T09:43:40.778Z,12.44
2019-05-14T09:46:09.849Z,12.58
2019-05-14T09:48:38.868Z,12.67
2019-05-14T09:51:09.318Z,12.79
2019-05-14T09:53:38.565Z,12.92
2019-05-14T09:56:09.058Z,13.07
2019-05-14T09:58:38.922Z,13.17
2019-05-14T10:01:08.649Z,13.22
2019-05-14T10:03:39.049Z,13.24
2019-05-14T10:06:09.797Z,13.24
2019-05-14T10:08:39.262Z,13.27
2019-05-14T10:11:08.354Z,13.43
2019-05-14T10:13:39.353Z,13.64
2019-05-14T10:16:09.457Z,13.74
2019-05-14T10:18:38.789Z,13.83
2019-05-14T10:21:08.629Z,13.90
2019-05-14T10:23:38.999Z,13.89
2019-05-14T10:26:09.094Z,13.86
2019-05-14T10:28:41.278Z,13.97
2019-05-14T10:31:12.900Z,14.20
2019-05-14T10:33:40.089Z,14.44
2019-05-14T10:36:09.365Z,14.65
2019-05-14T10:38:38.958Z,14.81
2019-05-14T10:41:08.958Z,14.94
2019-05-14T10:43:39.185Z,14.95
2019-05-14T10:46:09.134Z,15.02
2019-05-14T10:48:39.598Z,15.04
2019-05-14T10:51:09.843Z,15.02
2019-05-14T10:53:39.209Z,14.92
2019-05-14T10:56:09.814Z,14.98
2019-05-14T10:58:39.081Z,15.09
2019-05-14T11:01:11.283Z,15.19
2019-05-14T11:03:39.036Z,15.24
2019-05-14T11:06:11.371Z,15.34
2019-05-14T11:08:38.999Z,15.43
2019-05-14T11:11:10.634Z,15.45
2019-05-14T11:13:39.500Z,15.44
2019-05-14T11:16:08.854Z,15.45
2019-05-14T11:18:39.904Z,15.62
2019-05-14T11:21:19.913Z,15.85
2019-05-14T11:23:39.521Z,16.08
2019-05-14T11:26:09.315Z,16.37
2019-05-14T11:28:39.484Z,16.64
2019-05-14T11:31:09.335Z,16.91
2019-05-14T11:33:38.978Z,17.04
2019-05-14T11:36:09.322Z,17.25
2019-05-14T11:38:38.582Z,17.45
2019-05-14T11:41:09.570Z,17.60
2019-05-14T11:43:39.666Z,17.81
2019-05-14T11:46:09.156Z,17.84
2019-05-14T11:48:39.287Z,17.99
2019-05-14T11:51:09.153Z,18.18
2019-05-14T11:53:38.697Z,18.40
2019-05-14T11:56:08.803Z,18.71
2019-05-14T11:58:38.751Z,18.80
2019-05-14T12:01:09.273Z,19.00
2019-05-14T12:03:39.447Z,19.16
2019-05-14T12:06:09.780Z,19.28
2019-05-14T12:08:41.839Z,19.25
2019-05-14T12:11:10.106Z,19.13
2019-05-14T12:13:39.662Z,18.96
2019-05-14T12:16:08.797Z,18.84
2019-05-14T12:18:41.802Z,18.61
2019-05-14T12:21:09.086Z,18.39
2019-05-14T12:23:39.336Z,18.18
2019-05-14T12:26:09.513Z,17.97
2019-05-14T12:28:38.978Z,17.83
2019-05-14T12:31:09.343Z,17.72
2019-05-14T12:33:39.707Z,17.64
2019-05-14T12:36:10.436Z,17.59
2019-05-14T12:38:39.610Z,17.67
2019-05-14T12:41:09.305Z,17.90
2019-05-14T12:43:39.751Z,18.12
2019-05-14T12:46:10.479Z,18.27
2019-05-14T12:48:39.777Z,18.38
2019-05-14T12:51:09.207Z,18.50
2019-05-14T12:53:39.408Z,18.72
2019-05-14T12:56:08.931Z,18.93
2019-05-14T12:58:45.256Z,19.04
2019-05-14T13:01:09.436Z,19.11
2019-05-14T13:03:38.574Z,19.22
2019-05-14T13:06:10.096Z,19.39
2019-05-14T13:08:38.887Z,19.59
2019-05-14T13:11:09.581Z,19.77
2019-05-14T13:13:42.643Z,19.86
2019-05-14T13:16:09.873Z,19.95
2019-05-14T13:18:39.026Z,20.05
2019-05-14T13:21:08.099Z,20.10
2019-05-14T13:23:38.416Z,20.06
2019-05-14T13:26:10.583Z,19.96
2019-05-14T13:28:39.780Z,19.85
2019-05-14T13:31:09.458Z,19.76
2019-05-14T13:33:39.241Z,19.71
2019-05-14T13:36:08.614Z,19.48
2019-05-14T13:38:39.624Z,19.26
2019-05-14T13:41:08.836Z,19.09
2019-05-14T13:43:39.216Z,18.96
2019-05-14T13:46:10.392Z,19.00
2019-05-14T13:48:43.150Z,19.12
2019-05-14T13:51:10.269Z,19.11
2019-05-14T13:53:39.326Z,19.21
2019-05-14T13:56:09.239Z,19.10
2019-05-14T13:58:38.527Z,19.01
2019-05-14T14:01:09.919Z,18.88
2019-05-14T14:03:48.102Z,18.80
2019-05-14T14:06:10.311Z,18.73
2019-05-14T14:08:42.311Z,18.62
2019-05-14T14:11:12.615Z,18.63
2019-05-14T14:13:41.680Z,18.72
2019-05-14T14:16:14.483Z,18.65
2019-05-14T14:18:41.594Z,18.62
2019-05-14T14:21:10.688Z,18.60
2019-05-14T14:23:39.739Z,18.47
2019-05-14T14:26:09.630Z,18.34
2019-05-14T14:28:39.608Z,18.25
2019-05-14T14:31:11.087Z,18.21
2019-05-14T14:33:39.696Z,18.20
2019-05-14T14:36:08.801Z,18.32
2019-05-14T14:38:40.191Z,18.50
2019-05-14T14:41:10.365Z,18.64
2019-05-14T14:43:43.320Z,18.65
2019-05-14T14:46:13.968Z,18.64
2019-05-14T14:48:41.769Z,18.67
2019-05-14T14:51:10.825Z,18.64
2019-05-14T14:53:52.287Z,18.63
2019-05-14T14:56:10.809Z,18.63
2019-05-14T14:58:39.970Z,18.55
2019-05-14T15:01:09.090Z,18.46
2019-05-14T15:03:38.185Z,18.44
2019-05-14T15:06:09.612Z,18.46
2019-05-14T15:08:38.974Z,18.47
2019-05-14T15:11:08.794Z,18.46
2019-05-14T15:13:39.130Z,18.41
2019-05-14T15:16:13.583Z,18.35
2019-05-14T15:18:39.211Z,18.32
2019-05-14T15:21:09.732Z,18.30
2019-05-14T15:23:43.122Z,18.23
2019-05-14T15:26:12.062Z,18.09
2019-05-14T15:28:40.619Z,17.96
2019-05-14T15:31:09.692Z,17.82
2019-05-14T15:33:38.787Z,17.68
2019-05-14T15:36:09.185Z,17.58
2019-05-14T15:38:39.595Z,17.52
2019-05-14T15:41:13.325Z,17.51
2019-05-14T15:43:39.783Z,17.52
2019-05-14T15:46:08.967Z,17.57
2019-05-14T15:48:39.560Z,17.55
2019-05-14T15:51:14.339Z,17.52
2019-05-14T15:53:39.702Z,17.40
2019-05-14T15:56:08.787Z,17.26
2019-05-14T15:58:38.976Z,17.15
2019-05-14T16:01:10.006Z,16.95
2019-05-14T16:03:41.544Z,16.75
2019-05-14T16:06:10.008Z,16.63
2019-05-14T16:08:40.161Z,16.51
2019-05-14T16:11:11.287Z,16.48
2019-05-14T16:13:40.309Z,16.41
2019-05-14T16:16:10.587Z,16.34
2019-05-14T16:18:39.880Z,16.26
2019-05-14T16:21:10.483Z,16.24
2019-05-14T16:23:40.127Z,16.21
2019-05-14T16:26:09.180Z,16.18
2019-05-14T16:28:39.504Z,16.16
2019-05-14T16:31:09.048Z,16.14
2019-05-14T16:33:40.466Z,16.11
2019-05-14T16:36:09.070Z,16.05
2019-05-14T16:38:39.575Z,15.96
2019-05-14T16:41:08.958Z,15.83
2019-05-14T16:43:39.992Z,15.70
2019-05-14T16:46:09.470Z,15.62
2019-05-14T16:48:39.620Z,15.52
2019-05-14T16:51:09.239Z,15.42
2019-05-14T16:53:38.359Z,15.38
2019-05-14T16:56:08.070Z,15.32
2019-05-14T16:58:38.647Z,15.26
2019-05-14T17:01:09.699Z,15.21
2019-05-14T17:03:39.681Z,15.16
2019-05-14T17:06:09.226Z,15.10
2019-05-14T17:08:39.351Z,15.06
2019-05-14T17:11:09.512Z,14.96
2019-05-14T17:13:38.608Z,14.89
2019-05-14T17:16:08.520Z,14.84
2019-05-14T17:18:37.959Z,14.78
2019-05-14T17:21:09.209Z,14.74
2019-05-14T17:23:39.312Z,14.64
2019-05-14T17:26:09.083Z,14.51
2019-05-14T17:28:40.444Z,14.43
2019-05-14T17:31:09.161Z,14.34
2019-05-14T17:33:39.510Z,14.26
2019-05-14T17:36:09.662Z,14.16
2019-05-14T17:38:39.629Z,14.11
2019-05-14T17:41:09.381Z,14.08
2019-05-14T17:43:39.674Z,14.05
2019-05-14T17:46:09.996Z,13.99
2019-05-14T17:48:39.413Z,13.96
2019-05-14T17:51:09.329Z,13.89
2019-05-14T17:53:38.843Z,13.80
2019-05-14T17:56:08.553Z,13.74
2019-05-14T17:58:38.440Z,13.69
2019-05-14T18:01:09.013Z,13.66
2019-05-14T18:03:40.028Z,13.60
2019-05-14T18:06:09.792Z,13.52
2019-05-14T18:08:38.875Z,13.45
2019-05-14T18:11:08.850Z,13.41
2019-05-14T18:13:39.027Z,13.36
2019-05-14T18:16:09.105Z,13.30
2019-05-14T18:18:38.440Z,13.24
2019-05-14T18:21:09.402Z,13.19
2019-05-14T18:23:41.755Z,13.15
2019-05-14T18:26:09.423Z,13.07
2019-05-14T18:28:38.614Z,13.03
2019-05-14T18:31:09.416Z,12.99
2019-05-14T18:33:39.851Z,12.95
2019-05-14T18:36:09.379Z,12.88
2019-05-14T18:38:38.997Z,12.82
2019-05-14T18:41:08.714Z,12.76
2019-05-14T18:43:37.905Z,12.71
2019-05-14T18:46:08.544Z,12.66
2019-05-14T18:48:37.745Z,12.60
2019-05-14T18:51:08.990Z,12.58
2019-05-14T18:53:38.459Z,12.49
2019-05-14T18:56:19.387Z,12.44
2019-05-14T18:58:38.924Z,12.38
2019-05-14T19:01:08.371Z,12.33
2019-05-14T19:03:39.567Z,12.31
2019-05-14T19:06:08.234Z,12.26
2019-05-14T19:08:39.389Z,12.19
2019-05-14T19:11:08.311Z,12.10
2019-05-14T19:13:38.959Z,12.03
2019-05-14T19:16:08.423Z,11.98
2019-05-14T19:18:38.562Z,11.92
2019-05-14T19:21:08.859Z,11.86
2019-05-14T19:23:38.610Z,11.79
2019-05-14T19:26:09.596Z,11.72
2019-05-14T19:28:39.027Z,11.66
2019-05-14T19:31:09.184Z,11.58
2019-05-14T19:33:38.402Z,11.52
2019-05-14T19:36:08.848Z,11.45
2019-05-14T19:38:38.916Z,11.38
2019-05-14T19:41:08.781Z,11.30
2019-05-14T19:43:37.960Z,11.25
2019-05-14T19:46:08.740Z,11.17
2019-05-14T19:48:37.976Z,11.12
2019-05-14T19:51:08.308Z,11.05
2019-05-14T19:53:39.247Z,10.99
2019-05-14T19:56:08.312Z,10.92
2019-05-14T19:58:38.338Z,10.85
2019-05-14T20:01:09.148Z,10.77
2019-05-14T20:03:38.346Z,10.71
2019-05-14T20:06:09.077Z,10.63
2019-05-14T20:08:38.656Z,10.56
2019-05-14T20:11:07.828Z,10.51
2019-05-14T20:13:39.185Z,10.46
2019-05-14T20:16:08.627Z,10.40
2019-05-14T20:18:38.368Z,10.34
2019-05-14T20:21:08.695Z,10.29
2019-05-14T20:23:38.663Z,10.22
2019-05-14T20:26:08.382Z,10.17
2019-05-14T20:28:39.101Z,10.13
2019-05-14T20:31:10.341Z,10.08
2019-05-14T20:33:39.080Z,10.05
2019-05-14T20:36:08.450Z,10.02
2019-05-14T20:38:38.750Z,9.98
2019-05-14T20:41:08.705Z,9.92
2019-05-14T20:43:38.637Z,9.87
2019-05-14T20:46:07.703Z,9.84
2019-05-14T20:48:39.000Z,9.80
2019-05-14T20:51:08.991Z,9.73
2019-05-14T20:53:39.641Z,9.70
2019-05-14T20:56:08.888Z,9.65
2019-05-14T20:58:38.873Z,9.61
2019-05-14T21:01:11.125Z,9.58
2019-05-14T21:03:38.965Z,9.51
2019-05-14T21:06:09.048Z,9.46
2019-05-14T21:08:38.267Z,9.40
2019-05-14T21:11:08.221Z,9.35
2019-05-14T21:13:37.503Z,9.30
2019-05-14T21:16:08.333Z,9.27
2019-05-14T21:18:41.029Z,9.22
2019-05-14T21:21:10.875Z,9.18
2019-05-14T21:23:38.940Z,9.13
2019-05-14T21:26:08.572Z,9.06
2019-05-14T21:28:39.232Z,9.00
2019-05-14T21:31:10.488Z,8.92
2019-05-14T21:33:39.296Z,8.86
2019-05-14T21:36:09.502Z,8.77
2019-05-14T21:38:41.073Z,8.71
2019-05-14T21:41:09.799Z,8.66
2019-05-14T21:43:38.900Z,8.60
2019-05-14T21:46:08.185Z,8.55
2019-05-14T21:48:38.720Z,8.49
2019-05-14T21:51:08.709Z,8.41
2019-05-14T21:53:40.833Z,8.33
2019-05-14T21:56:08.815Z,8.26
2019-05-14T21:58:38.780Z,8.19
2019-05-14T22:01:09.317Z,8.10
2019-05-14T22:03:40.229Z,8.04
2019-05-14T22:06:09.154Z,7.98
2019-05-14T22:08:39.254Z,7.91
2019-05-14T22:11:08.658Z,7.85
2019-05-14T22:13:38.233Z,7.83
2019-05-14T22:16:08.446Z,7.80
2019-05-14T22:18:38.876Z,7.75
2019-05-14T22:21:08.825Z,7.72
2019-05-14T22:23:38.920Z,7.68
2019-05-14T22:26:08.081Z,7.63
2019-05-14T22:28:37.132Z,7.59
2019-05-14T22:31:08.848Z,7.54
2019-05-14T22:33:38.228Z,7.49
2019-05-14T22:36:08.694Z,7.44
2019-05-14T22:38:38.897Z,7.42
2019-05-14T22:41:11.285Z,7.38
2019-05-14T22:43:39.002Z,7.36
2019-05-14T22:46:08.509Z,7.33
2019-05-14T22:48:37.616Z,7.33
2019-05-14T22:51:08.692Z,7.31
2019-05-14T22:53:38.930Z,7.32
2019-05-14T22:56:08.412Z,7.28
2019-05-14T22:58:38.259Z,7.28
2019-05-14T23:01:14.864Z,7.28
2019-05-14T23:03:39.634Z,7.26
2019-05-14T23:06:09.075Z,7.21
2019-05-14T23:08:39.178Z,7.16
2019-05-14T23:11:08.771Z,7.11
2019-05-14T23:13:39.151Z,7.06
2019-05-14T23:16:08.533Z,7.01
2019-05-14T23:18:38.135Z,6.97
2019-05-14T23:21:08.811Z,6.91
2019-05-14T23:23:39.285Z,6.87
2019-05-14T23:26:08.768Z,6.85
2019-05-14T23:28:44.689Z,6.84
2019-05-14T23:31:08.759Z,6.81
2019-05-14T23:33:38.790Z,6.80
2019-05-14T23:36:08.754Z,6.78
2019-05-14T23:38:39.696Z,6.77
2019-05-14T23:41:08.979Z,6.76
2019-05-14T23:43:39.070Z,6.74
2019-05-14T23:46:09.299Z,6.69
2019-05-14T23:48:39.561Z,6.68
2019-05-14T23:51:08.545Z,6.64
2019-05-14T23:53:39.263Z,6.60
2019-05-14T23:56:09.002Z,6.58
2019-05-14T23:58:38.106Z,6.53
